Time;durP1;ratioP1;P1;durP2;ratioP2;P2;SDS_P1;SDS_P2;PMS_P1;PMS_P2;Temp;Humidity;BMP_temperature;BMP_pressure;BME280_temperature;BME280_humidity;BME280_pressure;Samples;Min_cycle;Max_cycle;Signal;HPM_P1;HPM_P2
2024/01/02 00:01:12;;;;;;;3.70;1.00;;;;;;;7.71;100.00;97016.94;5037698;28;20052;-79
2024/01/02 00:03:39;;;;;;;11.48;1.50;;;;;;;7.62;100.00;97021.47;5043889;28;20522;-77
2024/01/02 00:06:06;;;;;;;8.82;1.15;;;;;;;7.52;100.00;97014.47;5040562;28;20040;-79
2024/01/02 00:08:33;;;;;;;6.75;1.50;;;;;;;7.64;100.00;97005.81;5039480;28;20048;-78
2024/01/02 00:10:59;;;;;;;7.97;1.35;;;;;;;7.59;100.00;97014.81;5041540;28;20049;-79
2024/01/02 00:13:26;;;;;;;10.77;1.75;;;;;;;7.77;100.00;97010.31;5040424;28;20048;-77
2024/01/02 00:15:53;;;;;;;7.55;1.45;;;;;;;7.58;100.00;97004.34;5050356;28;20455;-77
2024/01/02 00:18:19;;;;;;;10.80;1.40;;;;;;;7.49;100.00;96993.53;5039493;28;20049;-78
2024/01/02 00:20:46;;;;;;;7.63;1.20;;;;;;;7.80;100.00;96996.19;5035902;28;20148;-78
2024/01/02 00:23:13;;;;;;;9.75;1.80;;;;;;;7.72;100.00;96988.88;5041712;28;20049;-78
2024/01/02 00:25:40;;;;;;;6.35;1.20;;;;;;;7.72;100.00;96976.19;5041507;28;20052;-79
2024/01/02 00:28:07;;;;;;;7.00;1.35;;;;;;;7.90;100.00;96972.44;5035281;28;20056;-77
2024/01/02 00:30:34;;;;;;;10.90;1.48;;;;;;;7.92;100.00;96972.16;5035027;28;20065;-76
2024/01/02 00:33:04;;;;;;;9.50;1.27;;;;;;;7.77;100.00;96964.50;5042521;28;20107;-76
2024/01/02 00:35:33;;;;;;;13.65;1.48;;;;;;;7.70;100.00;96961.44;5037426;28;20038;-77
2024/01/02 00:38:00;;;;;;;7.40;1.38;;;;;;;7.62;100.00;96971.09;5047149;28;20060;-77
2024/01/02 00:40:27;;;;;;;10.73;1.40;;;;;;;7.68;100.00;96971.75;5045116;28;20045;-78
2024/01/02 00:42:54;;;;;;;9.43;1.40;;;;;;;7.83;100.00;96974.00;5021779;28;20099;-78
2024/01/02 00:45:21;;;;;;;10.65;1.48;;;;;;;7.81;100.00;96970.84;5043260;28;20044;-79
2024/01/02 00:47:47;;;;;;;14.18;1.42;;;;;;;7.83;100.00;96955.16;5047206;28;20052;-79
2024/01/02 00:50:14;;;;;;;8.82;1.77;;;;;;;7.78;100.00;96960.69;5038153;28;20575;-79
2024/01/02 00:52:41;;;;;;;12.93;1.48;;;;;;;7.74;100.00;96960.53;5039855;28;20045;-78
2024/01/02 00:55:08;;;;;;;11.75;1.65;;;;;;;7.69;100.00;96952.56;5065714;28;20041;-79
2024/01/02 00:57:35;;;;;;;12.35;1.65;;;;;;;7.94;100.00;96957.25;5037051;28;20045;-78
2024/01/02 01:00:04;;;;;;;11.48;1.50;;;;;;;7.77;100.00;96951.81;5041189;28;20045;-78
2024/01/02 01:02:31;;;;;;;10.48;1.30;;;;;;;7.89;100.00;96948.53;5020699;28;20049;-78
2024/01/02 01:04:58;;;;;;;13.68;1.70;;;;;;;7.83;100.00;96937.09;5040551;28;20033;-79
2024/01/02 01:07:25;;;;;;;12.68;2.30;;;;;;;7.80;100.00;96943.09;5039662;28;20056;-77
2024/01/02 01:09:52;;;;;;;9.13;1.13;;;;;;;7.79;100.00;96944.22;5045954;28;20044;-79
2024/01/02 01:12:19;;;;;;;10.57;1.63;;;;;;;8.08;100.00;96943.63;5037589;28;20043;-78
2024/01/02 01:14:46;;;;;;;12.88;1.70;;;;;;;7.86;100.00;96935.66;5054833;28;20049;-78
2024/01/02 01:17:13;;;;;;;13.95;1.30;;;;;;;7.95;100.00;96941.84;5046080;28;20087;-78
2024/01/02 01:19:40;;;;;;;12.20;1.77;;;;;;;7.89;100.00;96940.44;5044643;28;20048;-76
2024/01/02 01:22:06;;;;;;;8.65;1.30;;;;;;;7.97;100.00;96942.34;5038812;28;20386;-79
2024/01/02 01:24:33;;;;;;;11.30;1.63;;;;;;;7.91;100.00;96943.59;5028557;28;20048;-78
2024/01/02 01:27:00;;;;;;;8.88;1.38;;;;;;;8.10;100.00;96942.19;5047755;28;20127;-78
2024/01/02 01:29:27;;;;;;;13.27;1.50;;;;;;;8.06;100.00;96938.56;5031325;28;20103;-78
2024/01/02 01:31:54;;;;;;;11.77;1.60;;;;;;;8.00;100.00;96941.72;5038010;28;20069;-76
2024/01/02 01:34:21;;;;;;;12.63;1.63;;;;;;;8.14;100.00;96940.47;5040628;28;20124;-76
2024/01/02 01:36:48;;;;;;;12.68;1.45;;;;;;;8.14;100.00;96928.91;5042536;28;20049;-75
2024/01/02 01:39:15;;;;;;;8.63;1.30;;;;;;;8.10;100.00;96930.66;5035635;28;20064;-76
2024/01/02 01:41:42;;;;;;;11.75;1.55;;;;;;;7.98;100.00;96925.88;5037887;28;20048;-76
2024/01/02 01:44:09;;;;;;;12.52;1.67;;;;;;;8.05;100.00;96926.19;5037336;28;20037;-77
2024/01/02 01:46:38;;;;;;;9.95;1.20;;;;;;;8.18;100.00;96931.75;5039771;28;20045;-78
2024/01/02 01:49:08;;;;;;;7.88;1.15;;;;;;;8.20;100.00;96921.44;5035182;28;20045;-77
2024/01/02 01:51:39;;;;;;;8.30;1.10;;;;;;;8.34;100.00;96909.41;5039848;28;20445;-79
2024/01/02 01:54:06;;;;;;;7.28;1.60;;;;;;;8.18;100.00;96914.47;5068272;28;21041;-78
2024/01/02 01:56:34;;;;;;;12.55;1.38;;;;;;;8.14;100.00;96910.81;5044349;28;20435;-76
2024/01/02 01:59:04;;;;;;;15.73;1.40;;;;;;;8.32;100.00;96913.53;5057136;28;20071;-76
2024/01/02 02:01:33;;;;;;;10.13;1.02;;;;;;;8.53;100.00;96903.69;5054044;28;20526;-78
2024/01/02 02:04:00;;;;;;;8.35;1.65;;;;;;;8.26;100.00;96918.25;5067128;28;20072;-78
2024/01/02 02:06:27;;;;;;;11.13;1.20;;;;;;;8.24;100.00;96906.22;5039922;28;20083;-77
2024/01/02 02:08:54;;;;;;;7.10;1.13;;;;;;;8.23;100.00;96905.44;5040279;28;20065;-77
2024/01/02 02:11:22;;;;;;;10.73;1.50;;;;;;;8.28;100.00;96899.91;5048787;28;20040;-77
2024/01/02 02:13:49;;;;;;;20.25;1.50;;;;;;;8.11;100.00;96902.56;5040810;28;20033;-76
2024/01/02 02:16:16;;;;;;;13.50;1.08;;;;;;;8.26;100.00;96895.94;5047659;28;20504;-78
2024/01/02 02:18:43;;;;;;;11.73;1.35;;;;;;;8.26;100.00;96904.78;5025171;28;20129;-76
2024/01/02 02:21:10;;;;;;;9.70;1.00;;;;;;;8.26;100.00;96904.00;5045426;28;20041;-77
2024/01/02 02:23:37;;;;;;;11.80;1.13;;;;;;;8.29;100.00;96904.19;5064927;28;20044;-76
2024/01/02 02:26:06;;;;;;;10.05;1.05;;;;;;;7.91;100.00;96898.59;5037473;28;20042;-77
2024/01/02 02:28:33;;;;;;;6.97;0.90;;;;;;;7.82;100.00;96897.78;5044688;28;20045;-77
2024/01/02 02:30:59;;;;;;;17.73;1.20;;;;;;;7.80;100.00;96896.50;5049513;28;20056;-77
2024/01/02 02:33:26;;;;;;;5.40;1.23;;;;;;;7.73;100.00;96901.56;5047411;28;20045;-75
2024/01/02 02:35:53;;;;;;;4.35;0.82;;;;;;;7.68;100.00;96889.06;5037427;28;20051;-77
2024/01/02 02:38:20;;;;;;;5.00;1.20;;;;;;;7.88;100.00;96885.75;5041538;28;20045;-78
2024/01/02 02:40:47;;;;;;;12.52;1.77;;;;;;;8.03;100.00;96887.19;5037057;28;20049;-77
2024/01/02 02:43:14;;;;;;;6.97;1.05;;;;;;;7.82;100.00;96887.00;5022234;28;20037;-76
2024/01/02 02:45:41;;;;;;;8.48;1.00;;;;;;;7.81;100.00;96873.84;5037961;28;20057;-77
2024/01/02 02:48:08;;;;;;;7.78;0.73;;;;;;;7.80;100.00;96864.97;5042985;28;20033;-78
2024/01/02 02:50:35;;;;;;;15.27;1.27;;;;;;;7.73;100.00;96869.25;5029336;28;20045;-76
2024/01/02 02:53:02;;;;;;;5.15;0.98;;;;;;;7.80;100.00;96864.16;5030017;28;20065;-78
2024/01/02 02:55:29;;;;;;;6.68;1.33;;;;;;;7.92;100.00;96875.91;5034296;28;20049;-77
2024/01/02 02:57:55;;;;;;;4.68;0.70;;;;;;;7.75;100.00;96867.81;5040171;28;20049;-76
2024/01/02 03:00:22;;;;;;;5.20;1.25;;;;;;;7.72;100.00;96875.72;5034353;28;20037;-76
2024/01/02 03:02:50;;;;;;;5.05;0.90;;;;;;;7.40;100.00;96861.59;5034938;28;20045;-76
2024/01/02 03:05:17;;;;;;;8.68;0.90;;;;;;;7.48;100.00;96860.78;5038292;28;20057;-75
2024/01/02 03:07:44;;;;;;;8.95;0.95;;;;;;;7.69;100.00;96860.22;5032538;28;20052;-75
2024/01/02 03:10:17;;;;;;;6.43;1.00;;;;;;;7.45;100.00;96856.06;5040130;28;20516;-77
2024/01/02 03:12:45;;;;;;;9.07;1.40;;;;;;;7.45;100.00;96844.47;5029244;28;20053;-78
2024/01/02 03:15:13;;;;;;;6.70;0.88;;;;;;;7.45;100.00;96837.22;5034179;28;20480;-78
2024/01/02 03:17:40;;;;;;;3.13;0.70;;;;;;;7.36;100.00;96831.00;5024497;28;20501;-77
2024/01/02 03:20:08;;;;;;;4.03;0.70;;;;;;;7.43;100.00;96828.63;5023155;28;20047;-77
2024/01/02 03:22:35;;;;;;;6.72;0.93;;;;;;;7.52;100.00;96816.00;5023700;28;20057;-77
2024/01/02 03:25:03;;;;;;;8.82;0.85;;;;;;;7.73;100.00;96807.28;5020107;28;20132;-78
2024/01/02 03:27:30;;;;;;;9.32;0.90;;;;;;;7.93;100.00;96793.16;5021422;28;20049;-77
2024/01/02 03:29:57;;;;;;;7.57;1.00;;;;;;;8.05;100.00;96788.72;5026134;28;20107;-77
2024/01/02 03:32:24;;;;;;;7.30;1.15;;;;;;;8.14;100.00;96783.31;5022552;28;20503;-76
2024/01/02 03:34:51;;;;;;;6.85;0.90;;;;;;;8.00;100.00;96786.19;5056303;28;20084;-77
2024/01/02 03:37:18;;;;;;;12.68;1.20;;;;;;;8.04;100.00;96767.50;5038090;28;20060;-76
2024/01/02 03:39:44;;;;;;;8.48;1.00;;;;;;;8.02;100.00;96769.72;5035977;28;20508;-76
2024/01/02 03:42:11;;;;;;;5.20;0.88;;;;;;;8.07;100.00;96764.16;5027173;28;20048;-77
2024/01/02 03:44:38;;;;;;;4.63;0.80;;;;;;;8.13;100.00;96757.47;5040858;28;20059;-76
2024/01/02 03:47:05;;;;;;;4.22;0.85;;;;;;;8.12;100.00;96750.50;5026178;28;20050;-74
2024/01/02 03:49:32;;;;;;;8.32;0.95;;;;;;;8.05;100.00;96742.91;5023673;28;20045;-75
2024/01/02 03:51:59;;;;;;;4.57;1.08;;;;;;;8.12;100.00;96740.53;5031800;28;20041;-75
2024/01/02 03:54:25;;;;;;;7.80;1.10;;;;;;;8.22;100.00;96731.31;5022981;28;20062;-77
2024/01/02 03:56:52;;;;;;;7.63;0.85;;;;;;;7.98;100.00;96729.13;5023813;28;20099;-75
2024/01/02 03:59:19;;;;;;;6.63;0.88;;;;;;;7.68;100.00;96723.94;5012571;28;20049;-77
2024/01/02 04:01:46;;;;;;;5.65;0.75;;;;;;;7.67;100.00;96719.66;5008250;28;20041;-78
2024/01/02 04:04:12;;;;;;;4.75;0.73;;;;;;;7.86;100.00;96712.84;5030833;28;20041;-76
2024/01/02 04:06:39;;;;;;;5.75;0.98;;;;;;;7.81;100.00;96718.38;5032367;28;20037;-77
2024/01/02 04:09:06;;;;;;;9.95;1.30;;;;;;;7.74;100.00;96704.63;5043686;28;20049;-78
2024/01/02 04:11:33;;;;;;;3.03;0.77;;;;;;;7.77;100.00;96703.97;5030346;28;20060;-77
2024/01/02 04:14:00;;;;;;;3.75;0.80;;;;;;;7.49;100.00;96695.44;5029773;28;20651;-77
2024/01/02 04:16:27;;;;;;;3.85;0.88;;;;;;;7.77;100.00;96703.19;5043672;28;20041;-76
2024/01/02 04:18:54;;;;;;;5.47;0.70;;;;;;;7.78;100.00;96686.69;5038064;28;20106;-78
2024/01/02 04:21:21;;;;;;;12.15;1.02;;;;;;;7.51;100.00;96674.38;5046501;28;20040;-77
2024/01/02 04:23:48;;;;;;;9.35;1.00;;;;;;;7.71;100.00;96680.22;5016544;28;20056;-79
2024/01/02 04:26:15;;;;;;;4.53;0.57;;;;;;;7.69;100.00;96685.13;5045848;28;20111;-78
2024/01/02 04:28:41;;;;;;;6.13;1.02;;;;;;;7.63;100.00;96670.25;5040617;28;20118;-77
2024/01/02 04:31:09;;;;;;;5.68;0.85;;;;;;;7.78;100.00;96665.13;5045307;28;20045;-78
2024/01/02 04:33:35;;;;;;;9.07;1.17;;;;;;;7.83;100.00;96661.47;5065130;28;20100;-78
2024/01/02 04:36:02;;;;;;;2.20;0.63;;;;;;;7.94;100.00;96662.72;5037176;28;20049;-76
2024/01/02 04:38:29;;;;;;;5.72;0.63;;;;;;;7.99;100.00;96649.09;5050586;28;20041;-77
2024/01/02 04:40:59;;;;;;;7.30;0.90;;;;;;;7.84;100.00;96652.28;5050981;28;20033;-76
2024/01/02 04:43:27;;;;;;;4.55;0.70;;;;;;;7.76;100.00;96635.03;5041941;28;20042;-77
2024/01/02 04:45:54;;;;;;;3.28;0.73;;;;;;;7.71;100.00;96642.50;5045022;28;20055;-76
2024/01/02 04:48:21;;;;;;;3.97;0.80;;;;;;;7.82;100.00;96630.28;5032529;28;20313;-77
2024/01/02 04:50:48;;;;;;;3.67;1.00;;;;;;;7.62;100.00;96625.56;5022905;28;20140;-78
2024/01/02 04:53:15;;;;;;;7.28;0.70;;;;;;;7.71;100.00;96631.72;5023920;28;20053;-77
2024/01/02 04:55:42;;;;;;;5.88;0.70;;;;;;;7.69;100.00;96623.19;5035602;28;20044;-78
2024/01/02 04:58:09;;;;;;;6.50;1.00;;;;;;;7.64;100.00;96617.97;5032632;28;20056;-78
2024/01/02 05:00:36;;;;;;;4.53;0.70;;;;;;;7.63;100.00;96606.41;5025986;28;20041;-77
2024/01/02 05:03:03;;;;;;;4.85;0.82;;;;;;;7.71;100.00;96604.78;5014102;28;20053;-76
2024/01/02 05:05:30;;;;;;;4.35;0.90;;;;;;;7.82;100.00;96601.41;5020841;28;20041;-77
2024/01/02 05:07:58;;;;;;;2.38;0.60;;;;;;;7.82;100.00;96603.34;5012392;28;20054;-77
2024/01/02 05:10:25;;;;;;;3.65;0.60;;;;;;;7.96;100.00;96607.41;5025055;28;20045;-78
2024/01/02 05:12:52;;;;;;;5.13;0.90;;;;;;;7.83;100.00;96583.34;5027512;28;20053;-78
2024/01/02 05:15:18;;;;;;;8.10;0.85;;;;;;;7.74;100.00;96588.00;5033405;28;20052;-78
2024/01/02 05:17:46;;;;;;;3.45;1.38;;;;;;;7.68;100.00;96571.22;5021963;28;20037;-77
2024/01/02 05:20:13;;;;;;;6.05;0.63;;;;;;;7.72;100.00;96560.56;5014619;28;20502;-76
2024/01/02 05:22:40;;;;;;;2.22;0.60;;;;;;;7.87;100.00;96560.81;5022764;28;20535;-76
2024/01/02 05:25:08;;;;;;;3.20;0.60;;;;;;;7.91;100.00;96559.06;5019236;28;20056;-76
2024/01/02 05:27:35;;;;;;;2.95;0.73;;;;;;;7.85;100.00;96554.19;5022745;28;20060;-77
2024/01/02 05:30:03;;;;;;;7.05;0.70;;;;;;;7.85;100.00;96549.59;5017648;28;20057;-77
2024/01/02 05:32:30;;;;;;;1.48;0.55;;;;;;;7.69;100.00;96545.84;5033149;28;20083;-78
2024/01/02 05:34:57;;;;;;;4.07;0.85;;;;;;;7.59;100.00;96556.19;5031612;28;20053;-79
2024/01/02 05:37:24;;;;;;;2.58;0.68;;;;;;;7.61;100.00;96549.38;5007804;28;20053;-77
2024/01/02 05:39:51;;;;;;;1.65;0.50;;;;;;;7.56;100.00;96549.56;5037811;28;20045;-79
2024/01/02 05:42:17;;;;;;;2.50;0.85;;;;;;;7.58;100.00;96539.25;5014078;28;20053;-78
2024/01/02 05:44:44;;;;;;;2.30;0.80;;;;;;;7.51;100.00;96537.03;5021572;28;20045;-79
2024/01/02 05:47:11;;;;;;;5.63;1.15;;;;;;;7.53;100.00;96529.44;5018179;28;20131;-78
2024/01/02 05:49:39;;;;;;;4.18;0.95;;;;;;;7.67;100.00;96521.13;5028410;28;20050;-80
2024/01/02 05:52:06;;;;;;;3.00;0.85;;;;;;;7.54;100.00;96520.25;5031923;28;20092;-78
2024/01/02 05:54:33;;;;;;;3.80;0.70;;;;;;;7.67;100.00;96512.25;5034034;28;20041;-77
2024/01/02 05:57:00;;;;;;;6.93;0.95;;;;;;;7.68;100.00;96509.25;5034428;28;20045;-77
2024/01/02 05:59:27;;;;;;;4.50;0.70;;;;;;;7.83;100.00;96505.22;5048127;28;20048;-77
2024/01/02 06:01:54;;;;;;;6.40;0.75;;;;;;;7.82;100.00;96503.66;5041882;28;20041;-76
2024/01/02 06:04:21;;;;;;;1.13;0.43;;;;;;;7.75;100.00;96500.66;5050463;28;20049;-78
2024/01/02 06:06:47;;;;;;;3.00;0.45;;;;;;;7.81;100.00;96486.69;5064847;28;20049;-77
2024/01/02 06:09:14;;;;;;;2.60;0.57;;;;;;;7.76;100.00;96473.41;5023657;28;20130;-76
2024/01/02 06:11:41;;;;;;;3.17;0.50;;;;;;;7.83;100.00;96467.50;5043985;28;20571;-76
2024/01/02 06:14:11;;;;;;;1.88;0.63;;;;;;;7.82;100.00;96468.63;5042350;28;20038;-77
2024/01/02 06:16:38;;;;;;;1.60;0.45;;;;;;;7.88;100.00;96467.31;5048198;28;20103;-76
2024/01/02 06:19:06;;;;;;;1.63;0.57;;;;;;;7.93;100.00;96465.22;5044533;28;20414;-77
2024/01/02 06:21:33;;;;;;;1.80;0.60;;;;;;;7.74;100.00;96442.53;5070593;28;20525;-76
2024/01/02 06:24:00;;;;;;;1.23;0.70;;;;;;;7.75;100.00;96447.59;5053130;28;20045;-77
2024/01/02 06:26:28;;;;;;;4.82;0.93;;;;;;;7.71;100.00;96443.19;5043042;28;20130;-76
2024/01/02 06:28:55;;;;;;;0.82;0.52;;;;;;;7.77;100.00;96433.81;5045559;28;20048;-77
2024/01/02 06:31:22;;;;;;;4.57;0.73;;;;;;;7.73;100.00;96435.56;5044393;28;20057;-77
2024/01/02 06:33:48;;;;;;;1.70;0.57;;;;;;;7.71;100.00;96435.09;5041722;28;20049;-76
2024/01/02 06:36:16;;;;;;;1.08;0.45;;;;;;;7.75;100.00;96442.19;5041330;28;20045;-75
2024/01/02 06:38:43;;;;;;;1.30;0.55;;;;;;;7.81;100.00;96437.41;5047814;28;20132;-76
2024/01/02 06:41:10;;;;;;;0.77;0.40;;;;;;;7.87;100.00;96434.19;5043620;28;20087;-77
2024/01/02 06:43:37;;;;;;;5.15;0.50;;;;;;;7.70;100.00;96420.03;5046352;28;20108;-77
2024/01/02 06:46:03;;;;;;;3.75;0.55;;;;;;;7.64;100.00;96419.44;5044160;28;20044;-75
2024/01/02 06:48:30;;;;;;;1.20;0.50;;;;;;;7.54;100.00;96426.00;5043719;28;20056;-77
2024/01/02 06:50:57;;;;;;;1.95;0.52;;;;;;;7.62;100.00;96427.06;5047413;28;20053;-76
2024/01/02 06:53:24;;;;;;;3.78;0.60;;;;;;;7.35;100.00;96422.13;5049055;28;20436;-76
2024/01/02 06:55:51;;;;;;;1.55;0.50;;;;;;;7.51;100.00;96418.56;5032795;28;20060;-77
2024/01/02 06:58:18;;;;;;;1.08;0.52;;;;;;;7.36;100.00;96408.34;5039733;28;20295;-75
2024/01/02 07:00:44;;;;;;;0.77;0.40;;;;;;;7.44;100.00;96417.47;5046355;28;20048;-76
2024/01/02 07:03:11;;;;;;;4.25;0.40;;;;;;;7.38;100.00;96395.34;5048180;28;20091;-76
2024/01/02 07:05:39;;;;;;;1.75;0.70;;;;;;;7.49;100.00;96399.25;5035610;28;20052;-77
2024/01/02 07:08:06;;;;;;;1.08;0.35;;;;;;;7.43;100.00;96410.53;5039291;28;20420;-76
2024/01/02 07:10:34;;;;;;;1.05;0.50;;;;;;;7.45;100.00;96401.03;5030637;28;20045;-76
2024/01/02 07:13:00;;;;;;;3.72;0.57;;;;;;;7.51;100.00;96393.53;5043208;28;20059;-75
2024/01/02 07:15:27;;;;;;;1.77;0.40;;;;;;;7.48;100.00;96399.59;5041597;28;20044;-77
2024/01/02 07:17:54;;;;;;;0.98;0.40;;;;;;;7.25;100.00;96392.88;5034618;28;20049;-76
2024/01/02 07:20:21;;;;;;;1.40;0.32;;;;;;;7.27;100.00;96394.13;5049319;28;20042;-77
2024/01/02 07:22:48;;;;;;;3.10;0.47;;;;;;;7.34;100.00;96397.13;5047880;28;20045;-78
2024/01/02 07:25:15;;;;;;;0.73;0.40;;;;;;;7.28;100.00;96384.94;5041260;28;20453;-76
2024/01/02 07:27:42;;;;;;;1.80;0.30;;;;;;;7.41;100.00;96386.63;5040963;28;20565;-78
2024/01/02 07:30:10;;;;;;;5.70;0.30;;;;;;;7.25;100.00;96377.50;5052901;28;20049;-77
2024/01/02 07:32:37;;;;;;;0.95;0.20;;;;;;;7.36;100.00;96373.34;5041165;28;20870;-77
2024/01/02 07:35:04;;;;;;;0.95;0.25;;;;;;;7.27;100.00;96358.34;5041563;28;20128;-77
2024/01/02 07:37:32;;;;;;;1.20;0.40;;;;;;;7.22;100.00;96359.34;5043719;28;20048;-76
2024/01/02 07:39:59;;;;;;;0.55;0.38;;;;;;;7.28;100.00;96360.72;5048092;28;20519;-77
2024/01/02 07:42:25;;;;;;;0.95;0.40;;;;;;;7.30;100.00;96360.41;5049257;28;20071;-75
2024/01/02 07:44:52;;;;;;;5.63;1.90;;;;;;;7.36;100.00;96351.81;5055234;28;20100;-77
2024/01/02 07:47:19;;;;;;;6.68;2.17;;;;;;;7.34;100.00;96339.78;5049314;28;20109;-76
2024/01/02 07:49:46;;;;;;;4.03;1.50;;;;;;;7.28;100.00;96341.88;5046526;28;20045;-76
2024/01/02 07:52:12;;;;;;;3.40;1.00;;;;;;;7.34;100.00;96331.72;5035111;28;20053;-77
2024/01/02 07:54:39;;;;;;;0.50;0.30;;;;;;;7.18;100.00;96322.63;5058437;28;20056;-79
2024/01/02 07:57:06;;;;;;;2.70;0.90;;;;;;;7.14;100.00;96316.31;5057087;28;20101;-76
2024/01/02 07:59:36;;;;;;;4.75;0.90;;;;;;;7.02;100.00;96313.53;5064159;28;20041;-76
2024/01/02 08:02:03;;;;;;;16.33;4.63;;;;;;;7.22;100.00;96316.28;5055960;28;20044;-76
2024/01/02 08:04:30;;;;;;;6.60;2.05;;;;;;;7.07;100.00;96314.13;5053042;28;20048;-76
2024/01/02 08:06:59;;;;;;;1.83;0.85;;;;;;;7.19;100.00;96306.16;5030457;28;20049;-78
2024/01/02 08:09:27;;;;;;;2.75;0.80;;;;;;;7.22;100.00;96299.34;5049964;28;20107;-78
2024/01/02 08:11:54;;;;;;;1.48;0.50;;;;;;;7.11;100.00;96303.50;5049422;28;20104;-77
2024/01/02 08:14:20;;;;;;;3.17;0.93;;;;;;;7.17;100.00;96304.91;5037180;28;20071;-77
2024/01/02 08:16:47;;;;;;;2.20;0.60;;;;;;;7.11;100.00;96288.16;5053403;28;20086;-78
2024/01/02 08:19:14;;;;;;;2.42;0.98;;;;;;;7.23;100.00;96280.16;5054644;28;20045;-76
2024/01/02 08:21:41;;;;;;;3.72;1.27;;;;;;;7.19;100.00;96287.31;5075081;28;20419;-78
2024/01/02 08:24:08;;;;;;;4.20;1.35;;;;;;;7.19;100.00;96284.63;5054237;28;20037;-78
2024/01/02 08:26:36;;;;;;;8.85;2.10;;;;;;;7.27;100.00;96272.22;5067552;28;20045;-77
2024/01/02 08:29:03;;;;;;;6.93;1.67;;;;;;;7.28;100.00;96269.19;5047448;28;20140;-76
2024/01/02 08:31:30;;;;;;;5.10;1.30;;;;;;;7.30;100.00;96263.50;5057422;28;20064;-78
2024/01/02 08:33:57;;;;;;;1.02;0.38;;;;;;;7.07;100.00;96260.31;5057179;28;20121;-76
2024/01/02 08:36:24;;;;;;;0.60;0.32;;;;;;;7.05;100.00;96262.53;5016472;28;20626;-77
2024/01/02 08:38:50;;;;;;;0.88;0.40;;;;;;;7.21;100.00;96257.38;5040715;28;20130;-77
2024/01/02 08:41:17;;;;;;;0.47;0.20;;;;;;;6.94;100.00;96249.81;5045699;28;20045;-77
2024/01/02 08:43:44;;;;;;;0.43;0.20;;;;;;;6.89;100.00;96248.84;5040410;28;20364;-77
2024/01/02 08:46:11;;;;;;;0.55;0.30;;;;;;;6.94;100.00;96226.38;5041546;28;20057;-78
2024/01/02 08:48:38;;;;;;;0.65;0.20;;;;;;;6.80;100.00;96229.31;5041278;28;20073;-77
2024/01/02 08:51:05;;;;;;;0.75;0.30;;;;;;;6.92;100.00;96222.44;5038642;28;20057;-77
2024/01/02 08:53:32;;;;;;;0.20;0.15;;;;;;;6.85;100.00;96220.25;5035282;28;20550;-77
2024/01/02 08:55:59;;;;;;;0.63;0.30;;;;;;;6.92;100.00;96212.44;5037571;28;20045;-77
2024/01/02 08:58:26;;;;;;;2.63;0.47;;;;;;;6.83;100.00;96201.75;5045841;28;20042;-78
2024/01/02 09:00:53;;;;;;;0.68;0.40;;;;;;;6.94;100.00;96204.88;5040986;28;20489;-78
2024/01/02 09:03:19;;;;;;;0.55;0.30;;;;;;;6.83;100.00;96198.28;5044421;28;20045;-77
2024/01/02 09:05:47;;;;;;;2.72;0.45;;;;;;;6.83;100.00;96193.69;5029814;28;20280;-76
2024/01/02 09:08:15;;;;;;;1.25;0.60;;;;;;;6.99;100.00;96198.50;5026925;28;20049;-77
2024/01/02 09:10:43;;;;;;;4.25;0.60;;;;;;;6.95;100.00;96194.88;5030461;28;20050;-77
2024/01/02 09:13:11;;;;;;;2.63;1.35;;;;;;;6.98;100.00;96178.88;5018656;28;20054;-77
2024/01/02 09:15:41;;;;;;;3.33;1.00;;;;;;;6.94;100.00;96169.91;5030850;28;20522;-76
2024/01/02 09:18:08;;;;;;;1.70;1.08;;;;;;;6.88;100.00;96172.00;5018688;28;20042;-77
2024/01/02 09:20:36;;;;;;;1.35;0.68;;;;;;;6.97;100.00;96163.06;5028024;28;20057;-78
2024/01/02 09:23:03;;;;;;;0.82;0.35;;;;;;;6.92;100.00;96168.66;5022069;28;20056;-76
2024/01/02 09:25:31;;;;;;;0.60;0.13;;;;;;;6.84;100.00;96162.97;5052822;28;20059;-76
2024/01/02 09:28:00;;;;;;;0.50;0.20;;;;;;;7.07;100.00;96155.38;5072887;28;20041;-77
2024/01/02 09:30:29;;;;;;;0.70;0.50;;;;;;;7.17;100.00;96148.84;5042945;28;20095;-77
2024/01/02 09:32:58;;;;;;;0.40;0.20;;;;;;;7.13;100.00;96148.69;5049875;28;20079;-78
2024/01/02 09:35:25;;;;;;;0.22;0.13;;;;;;;7.23;100.00;96150.97;5044564;28;20044;-76
2024/01/02 09:37:52;;;;;;;1.40;0.30;;;;;;;7.21;100.00;96145.16;5045619;28;20053;-76
2024/01/02 09:40:58;;;;;;;0.98;0.30;;;;;;;7.34;100.00;96135.22;5051519;28;20045;-77
2024/01/02 09:43:37;;;;;;;0.28;0.13;;;;;;;7.29;100.00;96138.13;5048089;28;21502;-77
2024/01/02 09:46:25;;;;;;;0.30;0.20;;;;;;;7.33;100.00;96136.34;5053324;28;21677;-77
2024/01/02 09:49:14;;;;;;;5.30;0.30;;;;;;;7.38;100.00;96120.75;5040458;28;20128;-76
2024/01/02 09:51:59;;;;;;;0.20;0.10;;;;;;;7.40;100.00;96131.22;5057176;28;20207;-78
2024/01/02 09:54:41;;;;;;;0.38;0.20;;;;;;;7.46;100.00;96117.22;5044249;28;20603;-76
2024/01/02 09:57:23;;;;;;;0.75;0.32;;;;;;;7.40;100.00;96105.09;5038784;28;20303;-77
2024/01/02 10:00:29;;;;;;;0.80;0.32;;;;;;;7.45;100.00;96083.34;5031217;28;20064;-78
2024/01/02 10:02:56;;;;;;;0.20;0.20;;;;;;;7.56;100.00;96099.06;5017647;28;20239;-78
2024/01/02 10:05:46;;;;;;;0.43;0.20;;;;;;;7.71;100.00;96085.75;5035031;28;20049;-78
2024/01/02 10:08:31;;;;;;;0.38;0.30;;;;;;;7.59;100.00;96071.50;5038869;28;20378;-78
2024/01/02 10:11:16;;;;;;;1.55;0.35;;;;;;;7.54;100.00;96054.41;5040394;28;20270;-77
2024/01/02 10:14:15;;;;;;;3.40;0.20;;;;;;;7.50;100.00;96050.03;5049560;28;20049;-78
2024/01/02 10:16:56;;;;;;;0.10;0.10;;;;;;;7.48;100.00;96053.03;5029077;28;20056;-77
2024/01/02 10:19:29;;;;;;;0.88;0.20;;;;;;;7.62;100.00;96073.50;5036882;28;20044;-76
2024/01/02 10:22:00;;;;;;;0.60;0.20;;;;;;;7.64;100.00;96055.13;5017870;28;20080;-78
2024/01/02 10:24:40;;;;;;;0.10;0.10;;;;;;;7.83;100.00;96031.91;5048147;28;20546;-77
2024/01/02 10:27:12;;;;;;;3.20;0.50;;;;;;;7.80;100.00;96029.09;5045052;28;20627;-78
2024/01/02 10:30:07;;;;;;;0.40;0.30;;;;;;;7.81;100.00;96023.38;5054173;28;20044;-76
2024/01/02 10:32:54;;;;;;;0.38;0.20;;;;;;;7.79;100.00;96039.09;5037390;28;20037;-78
2024/01/02 10:35:31;;;;;;;1.08;0.38;;;;;;;7.81;100.00;96042.22;5047460;28;20164;-79
2024/01/02 10:38:07;;;;;;;0.50;0.30;;;;;;;8.16;100.00;96029.09;5034399;28;20457;-77
2024/01/02 10:40:40;;;;;;;0.90;0.40;;;;;;;8.18;100.00;96034.16;5047528;28;20165;-77
2024/01/02 10:43:07;;;;;;;0.30;0.30;;;;;;;8.17;100.00;96001.00;5051207;28;20105;-77
2024/01/02 10:45:45;;;;;;;0.60;0.32;;;;;;;8.03;100.00;96022.91;5047984;28;20073;-78
2024/01/02 10:48:55;;;;;;;0.38;0.20;;;;;;;7.94;100.00;95995.31;5042619;28;20072;-79
2024/01/02 10:51:39;;;;;;;0.40;0.20;;;;;;;7.92;100.00;96002.94;5030233;28;20049;-77
2024/01/02 10:54:13;;;;;;;0.30;0.10;;;;;;;8.35;100.00;95999.69;5039453;28;20204;-77
2024/01/02 10:57:03;;;;;;;0.17;0.10;;;;;;;8.43;100.00;95981.78;5046054;28;20049;-77
2024/01/02 11:00:00;;;;;;;0.20;0.20;;;;;;;8.09;100.00;95970.38;5044472;28;20621;-76
2024/01/02 11:02:32;;;;;;;;;;;;;;;8.26;100.00;95960.47;5038711;28;20507;-78
2024/01/02 11:05:20;;;;;;;0.10;0.10;;;;;;;8.35;100.00;95959.22;5043472;28;19927;-79
2024/01/02 11:07:51;;;;;;;0.00;0.00;;;;;;;8.21;100.00;95960.72;5050728;28;20414;-77
2024/01/02 11:10:22;;;;;;;0.20;0.10;;;;;;;8.59;100.00;95907.13;5040686;28;20045;-78
2024/01/02 11:13:01;;;;;;;0.20;0.10;;;;;;;8.24;100.00;95952.72;5049160;28;20041;-78
2024/01/02 11:15:42;;;;;;;0.52;0.35;;;;;;;8.39;100.00;95930.44;5033492;28;20439;-78
2024/01/02 11:18:13;;;;;;;0.80;0.15;;;;;;;8.62;100.00;95922.63;5032741;28;20050;-79
2024/01/02 11:21:01;;;;;;;0.40;0.20;;;;;;;8.60;100.00;95912.19;5027335;28;20099;-79
2024/01/02 11:23:32;;;;;;;0.10;0.10;;;;;;;8.68;100.00;95905.06;5032704;28;20132;-79
2024/01/02 11:26:06;;;;;;;0.30;0.20;;;;;;;8.54;100.00;95889.28;5028836;28;20419;-79
2024/01/02 11:28:42;;;;;;;0.85;0.10;;;;;;;8.65;100.00;95895.75;5027079;28;20531;-79
2024/01/02 11:31:12;;;;;;;0.22;0.10;;;;;;;8.59;100.00;95894.41;5025442;28;20048;-77
2024/01/02 11:33:58;;;;;;;0.13;0.10;;;;;;;8.61;100.00;95900.28;5018797;28;20046;-79
2024/01/02 11:36:52;;;;;;;0.43;0.17;;;;;;;8.73;100.00;95886.72;5028130;28;20041;-76
2024/01/02 11:39:40;;;;;;;0.10;0.10;;;;;;;8.73;100.00;95885.94;5013844;28;20657;-77
2024/01/02 11:42:07;;;;;;;2.53;0.30;;;;;;;8.79;100.00;95898.03;5031892;28;20426;-76